sensor_id;sensor_type;location;lat;lon;timestamp;pressure;altitude;pressure_sealevel;temperature;humidity
25498;BME280;13406;53.380;7.226;2023-09-18T00:02:06;101983.78;;;17.21;100.00
25498;BME280;13406;53.380;7.226;2023-09-18T00:04:32;102045.84;;;17.49;100.00
25498;BME280;13406;53.380;7.226;2023-09-18T00:06:58;101945.56;;;16.91;100.00
25498;BME280;13406;53.380;7.226;2023-09-18T00:09:24;102026.47;;;17.46;100.00
25498;BME280;13406;53.380;7.226;2023-09-18T00:11:49;101941.97;;;16.97;100.00
25498;BME280;13406;53.380;7.226;2023-09-18T00:14:15;102023.31;;;17.49;100.00
25498;BME280;13406;53.380;7.226;2023-09-18T00:16:40;102030.78;;;17.60;100.00
25498;BME280;13406;53.380;7.226;2023-09-18T00:19:05;102027.28;;;17.46;100.00
25498;BME280;13406;53.380;7.226;2023-09-18T00:21:35;102030.28;;;17.31;100.00
25498;BME280;13406;53.380;7.226;2023-09-18T00:24:01;102029.66;;;17.36;100.00
25498;BME280;13406;53.380;7.226;2023-09-18T00:26:26;102029.38;;;17.44;100.00
25498;BME280;13406;53.380;7.226;2023-09-18T00:28:52;102026.47;;;17.46;100.00
25498;BME280;13406;53.380;7.226;2023-09-18T00:31:18;101905.22;;;16.49;100.00
25498;BME280;13406;53.380;7.226;2023-09-18T00:33:44;102007.28;;;17.40;100.00
25498;BME280;13406;53.380;7.226;2023-09-18T00:36:09;102007.09;;;17.35;100.00
25498;BME280;13406;53.380;7.226;2023-09-18T00:38:35;101896.38;;;16.87;100.00
25498;BME280;13406;53.380;7.226;2023-09-18T00:41:01;101887.44;;;16.73;100.00
25498;BME280;13406;53.380;7.226;2023-09-18T00:43:26;101939.22;;;17.10;100.00
25498;BME280;13406;53.380;7.226;2023-09-18T00:45:51;101942.19;;;17.40;100.00
25498;BME280;13406;53.380;7.226;2023-09-18T00:48:17;101938.00;;;17.45;100.00
25498;BME280;13406;53.380;7.226;2023-09-18T00:50:46;101828.25;;;16.77;100.00
25498;BME280;13406;53.380;7.226;2023-09-18T00:53:18;101810.34;;;16.76;100.00
25498;BME280;13406;53.380;7.226;2023-09-18T00:55:45;101811.75;;;16.85;100.00
25498;BME280;13406;53.380;7.226;2023-09-18T00:58:11;101794.69;;;16.85;100.00
25498;BME280;13406;53.380;7.226;2023-09-18T01:00:37;101816.44;;;17.03;100.00
25498;BME280;13406;53.380;7.226;2023-09-18T01:03:03;101750.81;;;16.56;100.00
25498;BME280;13406;53.380;7.226;2023-09-18T01:05:33;101849.38;;;17.07;100.00
25498;BME280;13406;53.380;7.226;2023-09-18T01:07:58;101873.63;;;17.33;100.00
25498;BME280;13406;53.380;7.226;2023-09-18T01:10:34;101832.69;;;17.10;100.00
25498;BME280;13406;53.380;7.226;2023-09-18T01:13:09;101847.16;;;17.29;100.00
25498;BME280;13406;53.380;7.226;2023-09-18T01:16:01;101850.88;;;17.34;100.00
25498;BME280;13406;53.380;7.226;2023-09-18T01:18:27;101723.94;;;16.55;100.00
25498;BME280;13406;53.380;7.226;2023-09-18T01:20:53;101828.56;;;17.32;100.00
25498;BME280;13406;53.380;7.226;2023-09-18T01:23:18;101818.16;;;17.29;100.00
25498;BME280;13406;53.380;7.226;2023-09-18T01:25:44;101769.22;;;16.92;100.00
25498;BME280;13406;53.380;7.226;2023-09-18T01:28:09;101685.22;;;16.54;100.00
25498;BME280;13406;53.380;7.226;2023-09-18T01:30:35;101793.97;;;17.28;100.00
25498;BME280;13406;53.380;7.226;2023-09-18T01:33:02;101655.72;;;16.39;100.00
25498;BME280;13406;53.380;7.226;2023-09-18T01:35:29;101748.75;;;16.97;100.00
25498;BME280;13406;53.380;7.226;2023-09-18T01:37:57;101779.31;;;17.10;100.00
25498;BME280;13406;53.380;7.226;2023-09-18T01:40:24;101784.59;;;17.30;100.00
25498;BME280;13406;53.380;7.226;2023-09-18T01:42:50;101772.94;;;17.23;100.00
25498;BME280;13406;53.380;7.226;2023-09-18T01:45:16;101793.28;;;17.39;100.00
25498;BME280;13406;53.380;7.226;2023-09-18T01:47:41;101760.22;;;17.24;100.00
25498;BME280;13406;53.380;7.226;2023-09-18T01:50:07;101775.66;;;17.23;100.00
25498;BME280;13406;53.380;7.226;2023-09-18T01:52:32;101749.47;;;17.10;100.00
25498;BME280;13406;53.380;7.226;2023-09-18T01:55:00;101674.56;;;16.59;100.00
25498;BME280;13406;53.380;7.226;2023-09-18T01:57:25;101786.09;;;17.20;100.00
25498;BME280;13406;53.380;7.226;2023-09-18T01:59:51;101769.47;;;17.16;100.00
25498;BME280;13406;53.380;7.226;2023-09-18T02:02:16;101645.34;;;16.36;100.00
25498;BME280;13406;53.380;7.226;2023-09-18T02:04:41;101781.81;;;17.37;100.00
25498;BME280;13406;53.380;7.226;2023-09-18T02:07:07;101735.13;;;17.03;100.00
25498;BME280;13406;53.380;7.226;2023-09-18T02:09:32;101735.09;;;17.10;100.00
25498;BME280;13406;53.380;7.226;2023-09-18T02:11:58;101716.84;;;16.99;100.00
25498;BME280;13406;53.380;7.226;2023-09-18T02:14:23;101648.13;;;16.55;100.00
25498;BME280;13406;53.380;7.226;2023-09-18T02:16:49;101695.03;;;16.87;100.00
25498;BME280;13406;53.380;7.226;2023-09-18T02:19:15;101760.22;;;17.24;100.00
25498;BME280;13406;53.380;7.226;2023-09-18T02:21:42;101750.44;;;17.23;100.00
25498;BME280;13406;53.380;7.226;2023-09-18T02:24:07;101756.47;;;17.25;100.00
25498;BME280;13406;53.380;7.226;2023-09-18T02:26:33;101751.25;;;17.23;100.00
25498;BME280;13406;53.380;7.226;2023-09-18T02:29:01;101689.66;;;16.80;100.00
25498;BME280;13406;53.380;7.226;2023-09-18T02:31:26;101754.91;;;17.10;100.00
25498;BME280;13406;53.380;7.226;2023-09-18T02:33:52;101720.00;;;16.96;100.00
25498;BME280;13406;53.380;7.226;2023-09-18T02:36:17;101751.50;;;17.22;100.00
25498;BME280;13406;53.380;7.226;2023-09-18T02:38:43;101682.94;;;16.89;100.00
25498;BME280;13406;53.380;7.226;2023-09-18T02:41:09;101636.88;;;16.58;100.00
25498;BME280;13406;53.380;7.226;2023-09-18T02:43:34;101731.09;;;17.37;100.00
25498;BME280;13406;53.380;7.226;2023-09-18T02:46:00;101737.97;;;17.40;100.00
25498;BME280;13406;53.380;7.226;2023-09-18T02:48:25;101706.41;;;17.27;100.00
25498;BME280;13406;53.380;7.226;2023-09-18T02:50:51;101687.84;;;16.99;100.00
25498;BME280;13406;53.380;7.226;2023-09-18T02:53:23;101711.38;;;17.30;100.00
25498;BME280;13406;53.380;7.226;2023-09-18T02:55:56;101631.44;;;16.89;100.00
25498;BME280;13406;53.380;7.226;2023-09-18T02:58:22;101609.63;;;16.78;100.00
25498;BME280;13406;53.380;7.226;2023-09-18T03:00:51;101717.88;;;17.48;100.00
25498;BME280;13406;53.380;7.226;2023-09-18T03:03:17;101700.56;;;17.49;100.00
25498;BME280;13406;53.380;7.226;2023-09-18T03:05:44;101581.91;;;16.82;100.00
25498;BME280;13406;53.380;7.226;2023-09-18T03:08:10;101582.06;;;16.87;100.00
25498;BME280;13406;53.380;7.226;2023-09-18T03:10:39;101650.75;;;17.43;100.00
25498;BME280;13406;53.380;7.226;2023-09-18T03:13:05;101540.50;;;16.68;100.00
25498;BME280;13406;53.380;7.226;2023-09-18T03:15:31;101666.72;;;17.51;100.00
25498;BME280;13406;53.380;7.226;2023-09-18T03:17:58;101646.50;;;17.47;100.00
25498;BME280;13406;53.380;7.226;2023-09-18T03:20:28;101553.69;;;16.90;100.00
25498;BME280;13406;53.380;7.226;2023-09-18T03:22:56;101538.78;;;16.81;100.00
25498;BME280;13406;53.380;7.226;2023-09-18T03:25:22;101543.84;;;16.96;100.00
25498;BME280;13406;53.380;7.226;2023-09-18T03:27:47;101528.69;;;16.88;100.00
25498;BME280;13406;53.380;7.226;2023-09-18T03:30:13;101618.44;;;17.60;100.00
25498;BME280;13406;53.380;7.226;2023-09-18T03:32:41;101488.38;;;16.73;100.00
25498;BME280;13406;53.380;7.226;2023-09-18T03:35:08;101597.19;;;17.57;100.00
25498;BME280;13406;53.380;7.226;2023-09-18T03:37:41;101580.16;;;17.50;100.00
25498;BME280;13406;53.380;7.226;2023-09-18T03:40:07;101570.88;;;17.57;100.00
25498;BME280;13406;53.380;7.226;2023-09-18T03:42:33;101546.69;;;17.56;100.00
25498;BME280;13406;53.380;7.226;2023-09-18T03:44:58;101547.81;;;17.67;100.00
25498;BME280;13406;53.380;7.226;2023-09-18T03:47:23;101418.75;;;16.99;100.00
25498;BME280;13406;53.380;7.226;2023-09-18T03:49:49;101507.88;;;17.55;100.00
25498;BME280;13406;53.380;7.226;2023-09-18T03:52:14;101462.22;;;17.22;100.00
25498;BME280;13406;53.380;7.226;2023-09-18T03:54:39;101453.72;;;17.19;100.00
25498;BME280;13406;53.380;7.226;2023-09-18T03:57:05;101385.81;;;16.95;100.00
25498;BME280;13406;53.380;7.226;2023-09-18T03:59:30;101445.31;;;17.38;100.00
25498;BME280;13406;53.380;7.226;2023-09-18T04:01:56;101432.34;;;17.59;100.00
25498;BME280;13406;53.380;7.226;2023-09-18T04:04:21;101405.38;;;17.46;100.00
25498;BME280;13406;53.380;7.226;2023-09-18T04:06:47;101414.41;;;17.70;100.00
25498;BME280;13406;53.380;7.226;2023-09-18T04:09:12;101406.19;;;17.76;100.00
25498;BME280;13406;53.380;7.226;2023-09-18T04:11:40;101390.00;;;17.70;100.00
25498;BME280;13406;53.380;7.226;2023-09-18T04:14:05;101377.38;;;17.75;100.00
25498;BME280;13406;53.380;7.226;2023-09-18T04:16:31;101305.03;;;17.34;100.00
25498;BME280;13406;53.380;7.226;2023-09-18T04:19:01;101246.03;;;17.06;100.00
25498;BME280;13406;53.380;7.226;2023-09-18T04:21:27;101274.94;;;17.35;100.00
25498;BME280;13406;53.380;7.226;2023-09-18T04:23:52;101237.75;;;17.01;100.00
25498;BME280;13406;53.380;7.226;2023-09-18T04:26:23;101281.94;;;17.43;100.00
25498;BME280;13406;53.380;7.226;2023-09-18T04:28:48;101297.28;;;17.73;100.00
25498;BME280;13406;53.380;7.226;2023-09-18T04:31:14;101259.56;;;17.59;100.00
25498;BME280;13406;53.380;7.226;2023-09-18T04:33:39;101266.63;;;17.60;100.00
25498;BME280;13406;53.380;7.226;2023-09-18T04:36:05;101216.50;;;17.39;100.00
25498;BME280;13406;53.380;7.226;2023-09-18T04:38:30;101237.72;;;17.66;100.00
25498;BME280;13406;53.380;7.226;2023-09-18T04:40:59;101106.53;;;17.08;100.00
25498;BME280;13406;53.380;7.226;2023-09-18T04:43:25;101111.81;;;17.15;100.00
25498;BME280;13406;53.380;7.226;2023-09-18T04:45:50;101117.34;;;17.32;100.00
25498;BME280;13406;53.380;7.226;2023-09-18T04:48:16;101156.47;;;17.59;100.00
25498;BME280;13406;53.380;7.226;2023-09-18T04:50:43;101204.13;;;17.91;100.00
25498;BME280;13406;53.380;7.226;2023-09-18T04:53:08;101104.16;;;17.24;100.00
25498;BME280;13406;53.380;7.226;2023-09-18T04:55:34;101175.47;;;17.83;100.00
25498;BME280;13406;53.380;7.226;2023-09-18T04:57:59;101067.03;;;17.12;100.00
25498;BME280;13406;53.380;7.226;2023-09-18T05:00:25;101125.72;;;17.54;100.00
25498;BME280;13406;53.380;7.226;2023-09-18T05:02:52;101063.50;;;17.24;100.00
25498;BME280;13406;53.380;7.226;2023-09-18T05:05:18;101123.00;;;17.54;100.00
25498;BME280;13406;53.380;7.226;2023-09-18T05:07:44;101076.34;;;17.28;100.00
25498;BME280;13406;53.380;7.226;2023-09-18T05:10:09;101182.03;;;17.99;100.00
25498;BME280;13406;53.380;7.226;2023-09-18T05:12:37;101126.50;;;17.66;100.00
25498;BME280;13406;53.380;7.226;2023-09-18T05:15:02;101073.03;;;17.38;100.00
25498;BME280;13406;53.380;7.226;2023-09-18T05:17:41;101134.88;;;17.88;100.00
25498;BME280;13406;53.380;7.226;2023-09-18T05:20:08;101074.88;;;17.49;100.00
25498;BME280;13406;53.380;7.226;2023-09-18T05:22:35;101154.66;;;18.00;100.00
25498;BME280;13406;53.380;7.226;2023-09-18T05:25:01;101062.06;;;17.45;100.00
25498;BME280;13406;53.380;7.226;2023-09-18T05:27:26;101066.59;;;17.56;100.00
25498;BME280;13406;53.380;7.226;2023-09-18T05:29:52;101110.00;;;17.79;100.00
25498;BME280;13406;53.380;7.226;2023-09-18T05:32:17;101033.75;;;17.40;100.00
25498;BME280;13406;53.380;7.226;2023-09-18T05:34:43;101029.28;;;17.46;100.00
25498;BME280;13406;53.380;7.226;2023-09-18T05:37:08;101112.78;;;17.96;100.00
25498;BME280;13406;53.380;7.226;2023-09-18T05:39:34;101058.69;;;17.78;100.00
25498;BME280;13406;53.380;7.226;2023-09-18T05:41:59;101122.03;;;18.12;100.00
25498;BME280;13406;53.380;7.226;2023-09-18T05:44:25;101068.34;;;17.86;100.00
25498;BME280;13406;53.380;7.226;2023-09-18T05:46:50;101072.22;;;17.90;100.00
25498;BME280;13406;53.380;7.226;2023-09-18T05:49:16;100988.59;;;17.46;100.00
25498;BME280;13406;53.380;7.226;2023-09-18T05:51:41;101083.03;;;18.01;100.00
25498;BME280;13406;53.380;7.226;2023-09-18T05:54:06;101115.31;;;18.15;100.00
25498;BME280;13406;53.380;7.226;2023-09-18T05:56:33;101133.56;;;18.19;100.00
25498;BME280;13406;53.380;7.226;2023-09-18T05:58:58;101129.66;;;18.27;100.00
25498;BME280;13406;53.380;7.226;2023-09-18T06:01:24;101120.00;;;18.19;100.00
25498;BME280;13406;53.380;7.226;2023-09-18T06:03:50;101122.22;;;18.22;100.00
25498;BME280;13406;53.380;7.226;2023-09-18T06:06:15;101026.81;;;17.73;100.00
25498;BME280;13406;53.380;7.226;2023-09-18T06:08:41;101109.72;;;18.21;100.00
25498;BME280;13406;53.380;7.226;2023-09-18T06:11:06;101115.09;;;18.33;100.00
25498;BME280;13406;53.380;7.226;2023-09-18T06:13:32;101078.78;;;18.22;100.00
25498;BME280;13406;53.380;7.226;2023-09-18T06:15:59;101101.53;;;18.33;100.00
25498;BME280;13406;53.380;7.226;2023-09-18T06:18:30;101091.25;;;18.35;100.00
25498;BME280;13406;53.380;7.226;2023-09-18T06:20:56;101090.09;;;18.48;100.00
25498;BME280;13406;53.380;7.226;2023-09-18T06:23:21;101074.97;;;18.35;100.00
25498;BME280;13406;53.380;7.226;2023-09-18T06:25:47;101095.63;;;18.53;100.00
25498;BME280;13406;53.380;7.226;2023-09-18T06:28:12;100990.91;;;17.95;100.00
25498;BME280;13406;53.380;7.226;2023-09-18T06:30:38;101079.25;;;18.48;100.00
25498;BME280;13406;53.380;7.226;2023-09-18T06:33:03;101098.03;;;18.49;100.00
25498;BME280;13406;53.380;7.226;2023-09-18T06:35:29;101104.94;;;18.40;100.00
25498;BME280;13406;53.380;7.226;2023-09-18T06:37:55;101076.56;;;18.19;100.00
25498;BME280;13406;53.380;7.226;2023-09-18T06:40:24;100999.69;;;17.73;100.00
25498;BME280;13406;53.380;7.226;2023-09-18T06:42:50;101097.41;;;18.30;100.00
25498;BME280;13406;53.380;7.226;2023-09-18T06:45:16;101053.25;;;18.35;100.00
25498;BME280;13406;53.380;7.226;2023-09-18T06:47:42;100987.41;;;18.11;100.00
25498;BME280;13406;53.380;7.226;2023-09-18T06:50:07;100862.16;;;17.57;100.00
25498;BME280;13406;53.380;7.226;2023-09-18T06:52:34;100782.09;;;17.37;100.00
25498;BME280;13406;53.380;7.226;2023-09-18T06:54:59;100858.84;;;18.17;100.00
25498;BME280;13406;53.380;7.226;2023-09-18T06:57:25;100797.41;;;18.11;100.00
25498;BME280;13406;53.380;7.226;2023-09-18T06:59:51;100694.22;;;17.72;100.00
25498;BME280;13406;53.380;7.226;2023-09-18T07:02:16;100709.81;;;17.99;100.00
25498;BME280;13406;53.380;7.226;2023-09-18T07:04:42;100694.31;;;17.94;100.00
25498;BME280;13406;53.380;7.226;2023-09-18T07:07:12;100607.44;;;17.50;100.00
25498;BME280;13406;53.380;7.226;2023-09-18T07:09:38;100686.16;;;18.16;100.00
25498;BME280;13406;53.380;7.226;2023-09-18T07:12:04;100628.47;;;18.04;100.00
25498;BME280;13406;53.380;7.226;2023-09-18T07:14:29;100593.59;;;17.91;100.00
25498;BME280;13406;53.380;7.226;2023-09-18T07:16:56;100539.25;;;17.63;100.00
25498;BME280;13406;53.380;7.226;2023-09-18T07:19:21;100593.75;;;18.06;100.00
25498;BME280;13406;53.380;7.226;2023-09-18T07:21:47;100619.50;;;18.25;100.00
25498;BME280;13406;53.380;7.226;2023-09-18T07:24:12;100603.03;;;18.10;100.00
25498;BME280;13406;53.380;7.226;2023-09-18T07:26:46;100534.63;;;17.64;100.00
25498;BME280;13406;53.380;7.226;2023-09-18T07:29:15;100521.47;;;17.95;100.00
25498;BME280;13406;53.380;7.226;2023-09-18T07:31:44;100534.03;;;18.33;100.00
25498;BME280;13406;53.380;7.226;2023-09-18T07:34:10;100531.25;;;18.23;100.00
25498;BME280;13406;53.380;7.226;2023-09-18T07:36:36;100375.28;;;17.49;100.00
25498;BME280;13406;53.380;7.226;2023-09-18T07:39:01;100447.03;;;18.18;100.00
25498;BME280;13406;53.380;7.226;2023-09-18T07:41:27;100355.97;;;17.68;100.00
25498;BME280;13406;53.380;7.226;2023-09-18T07:43:52;100489.31;;;18.41;100.00
25498;BME280;13406;53.380;7.226;2023-09-18T07:46:18;100454.59;;;18.43;100.00
25498;BME280;13406;53.380;7.226;2023-09-18T07:48:43;100444.25;;;18.45;100.00
25498;BME280;13406;53.380;7.226;2023-09-18T07:51:12;100248.97;;;17.86;100.00
25498;BME280;13406;53.380;7.226;2023-09-18T07:53:39;100378.50;;;18.38;100.00
25498;BME280;13406;53.380;7.226;2023-09-18T07:56:05;100314.81;;;18.13;100.00
25498;BME280;13406;53.380;7.226;2023-09-18T07:58:31;100320.56;;;18.17;100.00
25498;BME280;13406;53.380;7.226;2023-09-18T08:00:59;100227.69;;;17.72;100.00
25498;BME280;13406;53.380;7.226;2023-09-18T08:03:25;100275.44;;;17.73;100.00
25498;BME280;13406;53.380;7.226;2023-09-18T08:05:52;100369.31;;;18.44;100.00
25498;BME280;13406;53.380;7.226;2023-09-18T08:08:18;100294.41;;;17.73;100.00
25498;BME280;13406;53.380;7.226;2023-09-18T08:10:46;100387.19;;;18.35;100.00
25498;BME280;13406;53.380;7.226;2023-09-18T08:13:11;100354.94;;;18.06;100.00
25498;BME280;13406;53.380;7.226;2023-09-18T08:15:37;101243.44;;;18.40;100.00
25498;BME280;13406;53.380;7.226;2023-09-18T08:18:03;101290.75;;;18.44;100.00
25498;BME280;13406;53.380;7.226;2023-09-18T08:20:28;101313.09;;;18.46;100.00
25498;BME280;13406;53.380;7.226;2023-09-18T08:22:54;101337.88;;;18.50;100.00
25498;BME280;13406;53.380;7.226;2023-09-18T08:25:19;101252.38;;;17.89;100.00
25498;BME280;13406;53.380;7.226;2023-09-18T08:27:45;101252.59;;;17.75;100.00
25498;BME280;13406;53.380;7.226;2023-09-18T08:30:12;101312.31;;;17.87;100.00
25498;BME280;13406;53.380;7.226;2023-09-18T08:32:38;101424.44;;;18.46;100.00
25498;BME280;13406;53.380;7.226;2023-09-18T08:35:05;101436.28;;;18.40;100.00
25498;BME280;13406;53.380;7.226;2023-09-18T08:37:30;101380.53;;;17.91;100.00
25498;BME280;13406;53.380;7.226;2023-09-18T08:39:56;101429.28;;;18.33;100.00
25498;BME280;13406;53.380;7.226;2023-09-18T08:42:22;101384.88;;;17.92;100.00
25498;BME280;13406;53.380;7.226;2023-09-18T08:44:51;101466.00;;;18.59;100.00
25498;BME280;13406;53.380;7.226;2023-09-18T08:47:18;101352.53;;;17.90;100.00
25498;BME280;13406;53.380;7.226;2023-09-18T08:49:46;101391.00;;;17.99;100.00
25498;BME280;13406;53.380;7.226;2023-09-18T08:52:15;101404.47;;;17.82;100.00
25498;BME280;13406;53.380;7.226;2023-09-18T08:54:42;101505.59;;;18.43;100.00
25498;BME280;13406;53.380;7.226;2023-09-18T08:57:08;101442.84;;;17.97;100.00
25498;BME280;13406;53.380;7.226;2023-09-18T08:59:35;101451.78;;;17.86;100.00
25498;BME280;13406;53.380;7.226;2023-09-18T09:02:01;101482.47;;;17.98;100.00
25498;BME280;13406;53.380;7.226;2023-09-18T09:04:27;101528.59;;;18.28;100.00
25498;BME280;13406;53.380;7.226;2023-09-18T09:06:52;101578.94;;;18.55;100.00
25498;BME280;13406;53.380;7.226;2023-09-18T09:09:18;101620.91;;;18.70;100.00
25498;BME280;13406;53.380;7.226;2023-09-18T09:11:51;101641.06;;;18.63;100.00
25498;BME280;13406;53.380;7.226;2023-09-18T09:14:16;101538.16;;;17.89;100.00
25498;BME280;13406;53.380;7.226;2023-09-18T09:16:50;101590.38;;;18.03;100.00
25498;BME280;13406;53.380;7.226;2023-09-18T09:19:17;101615.47;;;17.98;100.00
25498;BME280;13406;53.380;7.226;2023-09-18T09:21:44;101734.31;;;18.63;100.00
25498;BME280;13406;53.380;7.226;2023-09-18T09:24:10;101667.88;;;17.99;100.00
25498;BME280;13406;53.380;7.226;2023-09-18T09:26:43;101658.38;;;17.90;100.00
25498;BME280;13406;53.380;7.226;2023-09-18T09:29:26;101718.16;;;18.20;100.00
25498;BME280;13406;53.380;7.226;2023-09-18T09:31:52;101745.16;;;18.15;100.00
25498;BME280;13406;53.380;7.226;2023-09-18T09:34:25;101827.56;;;18.57;100.00
25498;BME280;13406;53.380;7.226;2023-09-18T09:36:55;101814.03;;;18.39;100.00
25498;BME280;13406;53.380;7.226;2023-09-18T09:39:21;101848.56;;;18.50;100.00
25498;BME280;13406;53.380;7.226;2023-09-18T09:41:53;101842.81;;;18.40;100.00
25498;BME280;13406;53.380;7.226;2023-09-18T09:44:18;101775.53;;;18.05;100.00
25498;BME280;13406;53.380;7.226;2023-09-18T09:46:49;101803.53;;;18.05;100.00
25498;BME280;13406;53.380;7.226;2023-09-18T09:49:15;101845.00;;;18.13;100.00
25498;BME280;13406;53.380;7.226;2023-09-18T09:51:41;101867.63;;;18.06;100.00
25498;BME280;13406;53.380;7.226;2023-09-18T09:54:07;102016.28;;;18.61;100.00
25498;BME280;13406;53.380;7.226;2023-09-18T09:56:49;101989.88;;;18.00;100.00
25498;BME280;13406;53.380;7.226;2023-09-18T09:59:19;102057.47;;;18.08;100.00
25498;BME280;13406;53.380;7.226;2023-09-18T10:01:48;102079.34;;;18.13;100.00
25498;BME280;13406;53.380;7.226;2023-09-18T10:04:17;102168.63;;;18.66;100.00
25498;BME280;13406;53.380;7.226;2023-09-18T10:06:45;102197.66;;;18.66;100.00
25498;BME280;13406;53.380;7.226;2023-09-18T10:09:14;102208.50;;;18.72;100.00
25498;BME280;13406;53.380;7.226;2023-09-18T10:11:42;102123.22;;;18.17;100.00
25498;BME280;13406;53.380;7.226;2023-09-18T10:14:16;102119.44;;;18.18;100.00
25498;BME280;13406;53.380;7.226;2023-09-18T10:16:46;102262.59;;;18.87;100.00
25498;BME280;13406;53.380;7.226;2023-09-18T10:19:21;102247.84;;;19.02;100.00
25498;BME280;13406;53.380;7.226;2023-09-18T10:24:28;102253.13;;;18.96;100.00
25498;BME280;13406;53.380;7.226;2023-09-18T10:27:00;102183.38;;;18.52;100.00
25498;BME280;13406;53.380;7.226;2023-09-18T10:29:26;102218.75;;;18.77;100.00
25498;BME280;13406;53.380;7.226;2023-09-18T10:31:53;102136.91;;;18.28;100.00
25498;BME280;13406;53.380;7.226;2023-09-18T10:34:20;102267.00;;;19.13;100.00
25498;BME280;13406;53.380;7.226;2023-09-18T10:36:47;102173.44;;;18.64;100.00
25498;BME280;13406;53.380;7.226;2023-09-18T10:39:13;102278.38;;;19.29;100.00
25498;BME280;13406;53.380;7.226;2023-09-18T10:41:47;102159.91;;;18.89;100.00
25498;BME280;13406;53.380;7.226;2023-09-18T10:44:13;102227.06;;;19.57;100.00
25498;BME280;13406;53.380;7.226;2023-09-18T10:46:39;102246.59;;;19.73;100.00
25498;BME280;13406;53.380;7.226;2023-09-18T10:49:05;102235.78;;;19.66;100.00
25498;BME280;13406;53.380;7.226;2023-09-18T10:51:31;102209.13;;;19.50;100.00
25498;BME280;13406;53.380;7.226;2023-09-18T10:53:59;102105.59;;;18.83;100.00
25498;BME280;13406;53.380;7.226;2023-09-18T10:56:25;102103.41;;;18.91;100.00
25498;BME280;13406;53.380;7.226;2023-09-18T10:59:02;102101.19;;;19.07;100.00
25498;BME280;13406;53.380;7.226;2023-09-18T11:01:31;102109.56;;;19.24;100.00
25498;BME280;13406;53.380;7.226;2023-09-18T11:04:02;102164.78;;;19.86;100.00
25498;BME280;13406;53.380;7.226;2023-09-18T11:06:28;102029.34;;;19.33;100.00
25498;BME280;13406;53.380;7.226;2023-09-18T11:09:03;102037.25;;;19.53;100.00
25498;BME280;13406;53.380;7.226;2023-09-18T11:11:31;102009.88;;;19.66;100.00
25498;BME280;13406;53.380;7.226;2023-09-18T11:14:00;101968.88;;;19.91;100.00
25498;BME280;13406;53.380;7.226;2023-09-18T11:18:53;101893.34;;;20.10;100.00
25498;BME280;13406;53.380;7.226;2023-09-18T11:21:30;101841.59;;;20.22;100.00
25498;BME280;13406;53.380;7.226;2023-09-18T11:24:02;101805.66;;;20.48;100.00
25498;BME280;13406;53.380;7.226;2023-09-18T11:26:34;101752.47;;;20.46;100.00
25498;BME280;13406;53.380;7.226;2023-09-18T11:29:11;101670.25;;;20.20;100.00
25498;BME280;13406;53.380;7.226;2023-09-18T11:34:23;101523.88;;;19.58;100.00
25498;BME280;13406;53.380;7.226;2023-09-18T11:36:50;101495.78;;;19.53;100.00
25498;BME280;13406;53.380;7.226;2023-09-18T11:42:09;101541.13;;;20.21;100.00
25498;BME280;13406;53.380;7.226;2023-09-18T11:44:35;101505.22;;;20.24;100.00
25498;BME280;13406;53.380;7.226;2023-09-18T11:47:07;101411.38;;;19.81;100.00
25498;BME280;13406;53.380;7.226;2023-09-18T11:49:34;101467.19;;;20.46;100.00
25498;BME280;13406;53.380;7.226;2023-09-18T11:52:00;101433.81;;;20.56;100.00
25498;BME280;13406;53.380;7.226;2023-09-18T11:54:27;101323.13;;;20.33;100.00
25498;BME280;13406;53.380;7.226;2023-09-18T11:56:54;101356.06;;;21.19;100.00
25498;BME280;13406;53.380;7.226;2023-09-18T11:59:41;101249.91;;;20.86;100.00
25498;BME280;13406;53.380;7.226;2023-09-18T12:02:12;101159.13;;;20.85;100.00
25498;BME280;13406;53.380;7.226;2023-09-18T12:04:46;101174.72;;;21.27;100.00
25498;BME280;13406;53.380;7.226;2023-09-18T12:07:12;101089.97;;;20.96;100.00
25498;BME280;13406;53.380;7.226;2023-09-18T12:09:39;101055.56;;;20.90;100.00
25498;BME280;13406;53.380;7.226;2023-09-18T12:12:05;101098.00;;;21.56;100.00
25498;BME280;13406;53.380;7.226;2023-09-18T12:14:32;101080.78;;;21.60;100.00
25498;BME280;13406;53.380;7.226;2023-09-18T12:17:02;100971.75;;;21.18;100.00
25498;BME280;13406;53.380;7.226;2023-09-18T12:19:29;101029.00;;;21.76;100.00
25498;BME280;13406;53.380;7.226;2023-09-18T12:21:55;101018.91;;;21.81;100.00
25498;BME280;13406;53.380;7.226;2023-09-18T12:24:25;100928.13;;;21.28;100.00
25498;BME280;13406;53.380;7.226;2023-09-18T12:26:52;100994.09;;;22.08;100.00
25498;BME280;13406;53.380;7.226;2023-09-18T12:29:18;100879.13;;;21.64;100.00
25498;BME280;13406;53.380;7.226;2023-09-18T12:31:44;100954.22;;;22.02;100.00
25498;BME280;13406;53.380;7.226;2023-09-18T12:34:21;100912.97;;;21.88;100.00
25498;BME280;13406;53.380;7.226;2023-09-18T12:36:50;100827.78;;;21.51;100.00
25498;BME280;13406;53.380;7.226;2023-09-18T12:39:17;100906.69;;;22.03;100.00
25498;BME280;13406;53.380;7.226;2023-09-18T12:41:43;100901.47;;;21.51;100.00
25498;BME280;13406;53.380;7.226;2023-09-18T12:44:09;100890.53;;;21.40;100.00
25498;BME280;13406;53.380;7.226;2023-09-18T12:46:36;100777.53;;;20.38;100.00
25498;BME280;13406;53.380;7.226;2023-09-18T12:49:17;100881.88;;;20.91;100.00
25498;BME280;13406;53.380;7.226;2023-09-18T12:51:43;100853.69;;;20.65;100.00